sensor_id;sensor_type;location;lat;lon;timestamp;P1;durP1;ratioP1;P2;durP2;ratioP2
19089;SDS011;9677;50.656;13.064;2023-04-25T03:02:03;11.13;;;9.90;;
19089;SDS011;9677;50.656;13.064;2023-04-25T03:07:51;11.83;;;10.73;;
19089;SDS011;9677;50.656;13.064;2023-04-25T03:36:27;11.17;;;10.13;;
19089;SDS011;9677;50.656;13.064;2023-04-25T03:46:18;10.73;;;9.83;;
19089;SDS011;9677;50.656;13.064;2023-04-25T04:05:29;10.65;;;9.65;;
19089;SDS011;9677;50.656;13.064;2023-04-25T04:21:39;10.80;;;9.80;;
19089;SDS011;9677;50.656;13.064;2023-04-25T04:33:43;11.23;;;10.20;;
19089;SDS011;9677;50.656;13.064;2023-04-25T04:36:42;11.37;;;10.37;;
19089;SDS011;9677;50.656;13.064;2023-04-25T04:42:38;11.40;;;10.30;;
19089;SDS011;9677;50.656;13.064;2023-04-25T04:49:00;11.03;;;10.03;;
19089;SDS011;9677;50.656;13.064;2023-04-25T04:57:48;11.47;;;10.37;;
19089;SDS011;9677;50.656;13.064;2023-04-25T05:10:42;11.03;;;10.03;;
19089;SDS011;9677;50.656;13.064;2023-04-25T05:13:28;10.47;;;9.57;;
19089;SDS011;9677;50.656;13.064;2023-04-25T05:16:17;11.10;;;10.10;;
19089;SDS011;9677;50.656;13.064;2023-04-25T05:18:54;11.70;;;10.37;;
19089;SDS011;9677;50.656;13.064;2023-04-25T05:22:06;11.53;;;10.50;;
19089;SDS011;9677;50.656;13.064;2023-04-25T05:25:22;11.03;;;10.03;;
19089;SDS011;9677;50.656;13.064;2023-04-25T05:28:03;10.93;;;9.93;;
19089;SDS011;9677;50.656;13.064;2023-04-25T05:34:44;10.83;;;9.83;;
19089;SDS011;9677;50.656;13.064;2023-04-25T05:37:44;11.40;;;10.20;;
19089;SDS011;9677;50.656;13.064;2023-04-25T05:40:14;10.83;;;9.83;;
19089;SDS011;9677;50.656;13.064;2023-04-25T05:46:17;11.40;;;10.40;;
19089;SDS011;9677;50.656;13.064;2023-04-25T05:49:25;11.43;;;10.10;;
19089;SDS011;9677;50.656;13.064;2023-04-25T05:52:02;11.70;;;10.70;;
19089;SDS011;9677;50.656;13.064;2023-04-25T05:54:55;11.40;;;10.40;;
19089;SDS011;9677;50.656;13.064;2023-04-25T05:57:24;11.17;;;10.17;;
19089;SDS011;9677;50.656;13.064;2023-04-25T05:59:55;11.27;;;10.20;;
19089;SDS011;9677;50.656;13.064;2023-04-25T06:02:38;11.20;;;10.20;;
19089;SDS011;9677;50.656;13.064;2023-04-25T06:05:09;11.53;;;10.53;;
19089;SDS011;9677;50.656;13.064;2023-04-25T06:07:39;10.93;;;9.93;;
19089;SDS011;9677;50.656;13.064;2023-04-25T06:10:08;11.33;;;10.23;;
19089;SDS011;9677;50.656;13.064;2023-04-25T06:12:37;10.83;;;9.93;;
19089;SDS011;9677;50.656;13.064;2023-04-25T06:15:06;10.73;;;9.73;;
19089;SDS011;9677;50.656;13.064;2023-04-25T06:17:54;10.70;;;9.67;;
19089;SDS011;9677;50.656;13.064;2023-04-25T06:20:23;11.60;;;10.50;;
19089;SDS011;9677;50.656;13.064;2023-04-25T06:22:55;10.37;;;9.47;;
19089;SDS011;9677;50.656;13.064;2023-04-25T06:25:32;11.70;;;10.50;;
19089;SDS011;9677;50.656;13.064;2023-04-25T06:28:01;11.33;;;10.30;;
19089;SDS011;9677;50.656;13.064;2023-04-25T06:30:30;10.73;;;9.73;;
19089;SDS011;9677;50.656;13.064;2023-04-25T06:33:04;12.90;;;9.77;;
19089;SDS011;9677;50.656;13.064;2023-04-25T06:35:33;11.03;;;10.03;;
19089;SDS011;9677;50.656;13.064;2023-04-25T06:38:04;10.77;;;9.77;;
19089;SDS011;9677;50.656;13.064;2023-04-25T06:40:32;10.93;;;9.90;;
19089;SDS011;9677;50.656;13.064;2023-04-25T06:43:01;11.27;;;10.23;;
19089;SDS011;9677;50.656;13.064;2023-04-25T06:45:44;11.33;;;10.13;;
19089;SDS011;9677;50.656;13.064;2023-04-25T06:48:14;11.13;;;10.00;;
19089;SDS011;9677;50.656;13.064;2023-04-25T06:50:43;11.37;;;10.37;;
19089;SDS011;9677;50.656;13.064;2023-04-25T06:53:13;10.73;;;9.63;;
19089;SDS011;9677;50.656;13.064;2023-04-25T06:55:44;11.27;;;10.17;;
19089;SDS011;9677;50.656;13.064;2023-04-25T06:58:18;10.90;;;9.90;;
19089;SDS011;9677;50.656;13.064;2023-04-25T07:01:05;11.00;;;10.00;;
19089;SDS011;9677;50.656;13.064;2023-04-25T07:03:35;11.00;;;9.90;;
19089;SDS011;9677;50.656;13.064;2023-04-25T07:06:10;11.30;;;10.23;;
19089;SDS011;9677;50.656;13.064;2023-04-25T07:08:40;11.00;;;10.00;;
19089;SDS011;9677;50.656;13.064;2023-04-25T07:11:09;11.10;;;10.00;;
19089;SDS011;9677;50.656;13.064;2023-04-25T07:13:38;11.03;;;9.93;;
19089;SDS011;9677;50.656;13.064;2023-04-25T07:16:07;11.07;;;10.07;;
19089;SDS011;9677;50.656;13.064;2023-04-25T07:18:35;11.20;;;10.13;;
19089;SDS011;9677;50.656;13.064;2023-04-25T07:21:04;11.17;;;10.17;;
19089;SDS011;9677;50.656;13.064;2023-04-25T07:23:33;11.13;;;10.13;;
19089;SDS011;9677;50.656;13.064;2023-04-25T07:26:09;11.30;;;10.30;;
19089;SDS011;9677;50.656;13.064;2023-04-25T07:28:52;10.20;;;9.30;;
19089;SDS011;9677;50.656;13.064;2023-04-25T07:31:21;10.50;;;9.60;;
19089;SDS011;9677;50.656;13.064;2023-04-25T07:33:50;10.50;;;9.60;;
19089;SDS011;9677;50.656;13.064;2023-04-25T07:36:19;10.67;;;9.73;;
19089;SDS011;9677;50.656;13.064;2023-04-25T07:38:48;11.27;;;10.27;;
19089;SDS011;9677;50.656;13.064;2023-04-25T07:41:18;10.57;;;9.47;;
19089;SDS011;9677;50.656;13.064;2023-04-25T07:43:47;10.70;;;9.70;;
19089;SDS011;9677;50.656;13.064;2023-04-25T07:46:16;11.10;;;10.07;;
19089;SDS011;9677;50.656;13.064;2023-04-25T07:48:44;10.70;;;9.80;;
19089;SDS011;9677;50.656;13.064;2023-04-25T07:51:13;11.27;;;10.27;;
19089;SDS011;9677;50.656;13.064;2023-04-25T07:53:42;10.57;;;9.67;;
19089;SDS011;9677;50.656;13.064;2023-04-25T07:56:13;10.63;;;9.73;;
19089;SDS011;9677;50.656;13.064;2023-04-25T07:58:46;10.10;;;9.30;;
19089;SDS011;9677;50.656;13.064;2023-04-25T08:01:16;10.37;;;9.47;;
19089;SDS011;9677;50.656;13.064;2023-04-25T08:04:02;12.30;;;9.27;;
19089;SDS011;9677;50.656;13.064;2023-04-25T08:06:45;10.40;;;9.50;;
19089;SDS011;9677;50.656;13.064;2023-04-25T08:09:19;10.67;;;9.67;;
19089;SDS011;9677;50.656;13.064;2023-04-25T08:11:48;10.33;;;9.43;;
19089;SDS011;9677;50.656;13.064;2023-04-25T08:14:22;10.40;;;9.50;;
19089;SDS011;9677;50.656;13.064;2023-04-25T08:16:50;10.33;;;9.43;;
19089;SDS011;9677;50.656;13.064;2023-04-25T08:19:19;10.50;;;9.60;;
19089;SDS011;9677;50.656;13.064;2023-04-25T08:21:48;10.20;;;9.30;;
19089;SDS011;9677;50.656;13.064;2023-04-25T08:24:24;10.23;;;9.33;;
19089;SDS011;9677;50.656;13.064;2023-04-25T08:26:53;10.30;;;9.40;;
19089;SDS011;9677;50.656;13.064;2023-04-25T08:29:27;10.80;;;9.80;;
19089;SDS011;9677;50.656;13.064;2023-04-25T08:31:56;10.57;;;9.60;;
19089;SDS011;9677;50.656;13.064;2023-04-25T08:34:25;11.20;;;10.13;;
19089;SDS011;9677;50.656;13.064;2023-04-25T08:36:54;10.60;;;9.70;;
19089;SDS011;9677;50.656;13.064;2023-04-25T08:39:42;10.60;;;9.60;;
19089;SDS011;9677;50.656;13.064;2023-04-25T08:42:23;12.00;;;10.20;;
19089;SDS011;9677;50.656;13.064;2023-04-25T08:44:54;10.87;;;9.80;;
19089;SDS011;9677;50.656;13.064;2023-04-25T08:47:29;11.13;;;10.13;;
19089;SDS011;9677;50.656;13.064;2023-04-25T08:50:02;11.07;;;9.97;;
19089;SDS011;9677;50.656;13.064;2023-04-25T08:52:39;11.20;;;10.10;;
19089;SDS011;9677;50.656;13.064;2023-04-25T08:55:13;10.70;;;9.70;;
19089;SDS011;9677;50.656;13.064;2023-04-25T08:57:43;10.37;;;9.37;;
19089;SDS011;9677;50.656;13.064;2023-04-25T09:00:14;10.10;;;9.20;;
19089;SDS011;9677;50.656;13.064;2023-04-25T09:02:45;10.83;;;9.83;;
19089;SDS011;9677;50.656;13.064;2023-04-25T09:05:15;11.03;;;10.03;;
19089;SDS011;9677;50.656;13.064;2023-04-25T09:07:46;10.40;;;9.40;;
19089;SDS011;9677;50.656;13.064;2023-04-25T09:10:16;10.60;;;9.60;;
19089;SDS011;9677;50.656;13.064;2023-04-25T09:12:52;10.73;;;9.73;;
19089;SDS011;9677;50.656;13.064;2023-04-25T09:15:47;11.40;;;10.20;;
19089;SDS011;9677;50.656;13.064;2023-04-25T09:18:33;12.20;;;9.93;;
19089;SDS011;9677;50.656;13.064;2023-04-25T09:21:06;10.93;;;9.93;;
19089;SDS011;9677;50.656;13.064;2023-04-25T09:23:43;10.80;;;9.60;;
19089;SDS011;9677;50.656;13.064;2023-04-25T09:26:14;11.40;;;10.30;;
19089;SDS011;9677;50.656;13.064;2023-04-25T09:28:44;11.20;;;10.13;;
19089;SDS011;9677;50.656;13.064;2023-04-25T09:31:22;10.90;;;9.80;;
19089;SDS011;9677;50.656;13.064;2023-04-25T09:33:58;11.30;;;10.10;;
19089;SDS011;9677;50.656;13.064;2023-04-25T09:36:35;10.80;;;9.80;;
19089;SDS011;9677;50.656;13.064;2023-04-25T09:39:19;11.23;;;10.13;;
19089;SDS011;9677;50.656;13.064;2023-04-25T09:41:58;11.30;;;10.20;;
19089;SDS011;9677;50.656;13.064;2023-04-25T09:44:27;11.37;;;10.27;;
19089;SDS011;9677;50.656;13.064;2023-04-25T09:46:57;11.20;;;10.20;;
19089;SDS011;9677;50.656;13.064;2023-04-25T09:49:28;11.73;;;10.53;;
19089;SDS011;9677;50.656;13.064;2023-04-25T09:52:03;11.33;;;9.87;;
19089;SDS011;9677;50.656;13.064;2023-04-25T09:54:38;10.93;;;9.93;;
19089;SDS011;9677;50.656;13.064;2023-04-25T09:57:14;10.53;;;9.53;;
19089;SDS011;9677;50.656;13.064;2023-04-25T09:59:46;11.63;;;10.00;;
19089;SDS011;9677;50.656;13.064;2023-04-25T10:02:18;11.87;;;10.67;;
19089;SDS011;9677;50.656;13.064;2023-04-25T10:04:52;11.27;;;10.17;;
19089;SDS011;9677;50.656;13.064;2023-04-25T10:07:28;10.90;;;9.83;;
19089;SDS011;9677;50.656;13.064;2023-04-25T10:10:00;11.10;;;10.00;;
19089;SDS011;9677;50.656;13.064;2023-04-25T10:12:30;10.60;;;9.60;;
19089;SDS011;9677;50.656;13.064;2023-04-25T10:15:00;10.70;;;9.70;;
19089;SDS011;9677;50.656;13.064;2023-04-25T10:17:32;10.80;;;9.80;;
19089;SDS011;9677;50.656;13.064;2023-04-25T10:20:01;11.00;;;9.87;;
19089;SDS011;9677;50.656;13.064;2023-04-25T10:22:34;10.50;;;9.60;;
19089;SDS011;9677;50.656;13.064;2023-04-25T10:25:05;10.80;;;9.80;;
19089;SDS011;9677;50.656;13.064;2023-04-25T10:27:35;10.63;;;9.63;;
19089;SDS011;9677;50.656;13.064;2023-04-25T10:30:05;10.63;;;9.73;;
19089;SDS011;9677;50.656;13.064;2023-04-25T10:32:39;10.43;;;9.43;;
19089;SDS011;9677;50.656;13.064;2023-04-25T10:35:12;10.73;;;9.73;;
19089;SDS011;9677;50.656;13.064;2023-04-25T10:37:56;10.60;;;9.70;;
19089;SDS011;9677;50.656;13.064;2023-04-25T10:40:26;10.57;;;9.60;;
19089;SDS011;9677;50.656;13.064;2023-04-25T10:42:55;10.30;;;9.40;;
19089;SDS011;9677;50.656;13.064;2023-04-25T10:45:23;10.13;;;9.23;;
19089;SDS011;9677;50.656;13.064;2023-04-25T10:47:53;10.97;;;9.97;;
19089;SDS011;9677;50.656;13.064;2023-04-25T10:50:23;10.23;;;9.23;;
19089;SDS011;9677;50.656;13.064;2023-04-25T10:53:13;10.60;;;9.60;;
19089;SDS011;9677;50.656;13.064;2023-04-25T10:55:49;10.43;;;9.53;;
19089;SDS011;9677;50.656;13.064;2023-04-25T10:58:20;10.20;;;9.23;;
19089;SDS011;9677;50.656;13.064;2023-04-25T11:00:50;10.20;;;9.30;;
19089;SDS011;9677;50.656;13.064;2023-04-25T11:03:24;10.13;;;9.23;;
19089;SDS011;9677;50.656;13.064;2023-04-25T11:05:53;10.60;;;9.70;;
19089;SDS011;9677;50.656;13.064;2023-04-25T11:08:46;11.03;;;10.03;;
19089;SDS011;9677;50.656;13.064;2023-04-25T11:11:17;10.00;;;9.10;;
19089;SDS011;9677;50.656;13.064;2023-04-25T11:13:47;10.30;;;9.40;;
19089;SDS011;9677;50.656;13.064;2023-04-25T11:16:17;10.20;;;9.30;;
19089;SDS011;9677;50.656;13.064;2023-04-25T11:18:56;10.30;;;9.40;;
19089;SDS011;9677;50.656;13.064;2023-04-25T11:21:25;10.77;;;9.77;;
19089;SDS011;9677;50.656;13.064;2023-04-25T11:23:54;10.20;;;9.30;;
19089;SDS011;9677;50.656;13.064;2023-04-25T11:26:24;10.47;;;9.47;;
19089;SDS011;9677;50.656;13.064;2023-04-25T11:28:56;10.70;;;9.70;;
19089;SDS011;9677;50.656;13.064;2023-04-25T11:31:26;10.30;;;9.40;;
19089;SDS011;9677;50.656;13.064;2023-04-25T11:33:57;10.23;;;9.33;;
19089;SDS011;9677;50.656;13.064;2023-04-25T11:36:26;10.93;;;9.80;;
19089;SDS011;9677;50.656;13.064;2023-04-25T11:38:54;11.10;;;10.00;;
19089;SDS011;9677;50.656;13.064;2023-04-25T11:41:23;11.20;;;10.20;;
19089;SDS011;9677;50.656;13.064;2023-04-25T11:43:53;11.30;;;10.20;;
19089;SDS011;9677;50.656;13.064;2023-04-25T11:46:22;11.30;;;10.20;;
19089;SDS011;9677;50.656;13.064;2023-04-25T11:48:50;11.07;;;10.00;;
19089;SDS011;9677;50.656;13.064;2023-04-25T11:51:21;11.33;;;10.23;;
19089;SDS011;9677;50.656;13.064;2023-04-25T11:53:49;12.00;;;10.87;;
19089;SDS011;9677;50.656;13.064;2023-04-25T11:56:18;11.00;;;10.03;;
19089;SDS011;9677;50.656;13.064;2023-04-25T11:58:54;11.37;;;10.30;;
19089;SDS011;9677;50.656;13.064;2023-04-25T12:01:28;11.13;;;10.13;;
19089;SDS011;9677;50.656;13.064;2023-04-25T12:04:09;11.43;;;10.03;;
19089;SDS011;9677;50.656;13.064;2023-04-25T12:06:42;13.83;;;10.20;;
19089;SDS011;9677;50.656;13.064;2023-04-25T12:09:13;16.10;;;10.03;;
19089;SDS011;9677;50.656;13.064;2023-04-25T12:11:44;11.27;;;10.03;;
19089;SDS011;9677;50.656;13.064;2023-04-25T12:14:20;10.93;;;9.93;;
19089;SDS011;9677;50.656;13.064;2023-04-25T12:16:50;11.43;;;10.27;;
19089;SDS011;9677;50.656;13.064;2023-04-25T12:19:19;10.90;;;9.90;;
19089;SDS011;9677;50.656;13.064;2023-04-25T12:21:49;11.27;;;10.17;;
19089;SDS011;9677;50.656;13.064;2023-04-25T12:24:22;11.60;;;10.50;;
19089;SDS011;9677;50.656;13.064;2023-04-25T12:26:52;11.37;;;10.37;;
19089;SDS011;9677;50.656;13.064;2023-04-25T12:29:28;11.60;;;10.20;;
19089;SDS011;9677;50.656;13.064;2023-04-25T12:32:14;11.07;;;10.07;;
19089;SDS011;9677;50.656;13.064;2023-04-25T12:34:43;11.50;;;10.43;;
19089;SDS011;9677;50.656;13.064;2023-04-25T12:37:12;10.80;;;9.80;;
19089;SDS011;9677;50.656;13.064;2023-04-25T12:39:41;12.43;;;11.13;;
19089;SDS011;9677;50.656;13.064;2023-04-25T12:42:09;11.97;;;10.77;;
19089;SDS011;9677;50.656;13.064;2023-04-25T12:44:39;11.50;;;10.40;;
19089;SDS011;9677;50.656;13.064;2023-04-25T12:47:08;12.00;;;10.90;;
19089;SDS011;9677;50.656;13.064;2023-04-25T12:49:36;14.53;;;10.43;;
19089;SDS011;9677;50.656;13.064;2023-04-25T12:52:05;12.00;;;10.90;;
19089;SDS011;9677;50.656;13.064;2023-04-25T12:54:34;11.93;;;10.67;;
19089;SDS011;9677;50.656;13.064;2023-04-25T12:57:03;12.33;;;11.13;;
19089;SDS011;9677;50.656;13.064;2023-04-25T12:59:31;12.13;;;10.90;;
19089;SDS011;9677;50.656;13.064;2023-04-25T13:02:00;11.70;;;10.60;;
19089;SDS011;9677;50.656;13.064;2023-04-25T13:04:29;13.53;;;10.60;;
19089;SDS011;9677;50.656;13.064;2023-04-25T13:06:57;12.37;;;10.43;;
19089;SDS011;9677;50.656;13.064;2023-04-25T13:09:26;12.20;;;11.00;;
19089;SDS011;9677;50.656;13.064;2023-04-25T13:11:56;11.87;;;10.67;;
19089;SDS011;9677;50.656;13.064;2023-04-25T13:14:25;11.50;;;10.40;;
19089;SDS011;9677;50.656;13.064;2023-04-25T13:16:53;13.63;;;11.03;;
19089;SDS011;9677;50.656;13.064;2023-04-25T13:19:22;13.33;;;10.80;;
19089;SDS011;9677;50.656;13.064;2023-04-25T13:21:52;11.77;;;10.57;;
19089;SDS011;9677;50.656;13.064;2023-04-25T13:24:20;12.20;;;10.77;;
19089;SDS011;9677;50.656;13.064;2023-04-25T13:26:48;11.50;;;10.30;;
19089;SDS011;9677;50.656;13.064;2023-04-25T13:29:18;11.27;;;10.17;;
19089;SDS011;9677;50.656;13.064;2023-04-25T13:31:46;10.93;;;9.93;;
19089;SDS011;9677;50.656;13.064;2023-04-25T13:34:15;11.33;;;10.30;;
19089;SDS011;9677;50.656;13.064;2023-04-25T13:36:43;10.50;;;9.57;;
19089;SDS011;9677;50.656;13.064;2023-04-25T13:39:12;10.50;;;9.60;;
19089;SDS011;9677;50.656;13.064;2023-04-25T13:41:40;11.30;;;10.30;;
19089;SDS011;9677;50.656;13.064;2023-04-25T13:44:09;11.07;;;10.07;;
19089;SDS011;9677;50.656;13.064;2023-04-25T13:46:39;11.17;;;10.17;;
19089;SDS011;9677;50.656;13.064;2023-04-25T13:49:13;11.10;;;10.00;;
19089;SDS011;9677;50.656;13.064;2023-04-25T13:51:42;11.47;;;10.43;;
19089;SDS011;9677;50.656;13.064;2023-04-25T13:54:10;11.53;;;10.23;;
19089;SDS011;9677;50.656;13.064;2023-04-25T13:56:38;10.90;;;9.90;;
19089;SDS011;9677;50.656;13.064;2023-04-25T13:59:08;11.60;;;10.53;;
19089;SDS011;9677;50.656;13.064;2023-04-25T14:01:39;10.80;;;9.80;;
19089;SDS011;9677;50.656;13.064;2023-04-25T14:04:07;10.90;;;9.90;;
19089;SDS011;9677;50.656;13.064;2023-04-25T14:06:36;10.83;;;9.83;;
19089;SDS011;9677;50.656;13.064;2023-04-25T14:09:04;10.50;;;9.50;;
19089;SDS011;9677;50.656;13.064;2023-04-25T14:11:33;10.70;;;9.70;;
19089;SDS011;9677;50.656;13.064;2023-04-25T14:14:02;10.73;;;9.73;;
19089;SDS011;9677;50.656;13.064;2023-04-25T14:16:30;10.97;;;9.97;;
19089;SDS011;9677;50.656;13.064;2023-04-25T14:19:00;11.07;;;10.07;;
19089;SDS011;9677;50.656;13.064;2023-04-25T14:21:29;11.40;;;10.30;;
19089;SDS011;9677;50.656;13.064;2023-04-25T14:23:59;11.20;;;10.10;;
19089;SDS011;9677;50.656;13.064;2023-04-25T14:26:27;11.27;;;10.27;;
19089;SDS011;9677;50.656;13.064;2023-04-25T14:28:56;10.97;;;9.87;;
19089;SDS011;9677;50.656;13.064;2023-04-25T14:31:24;10.60;;;9.60;;
19089;SDS011;9677;50.656;13.064;2023-04-25T14:33:53;11.17;;;10.17;;
19089;SDS011;9677;50.656;13.064;2023-04-25T14:36:26;10.67;;;9.67;;
19089;SDS011;9677;50.656;13.064;2023-04-25T14:38:57;10.67;;;9.67;;
19089;SDS011;9677;50.656;13.064;2023-04-25T14:41:26;11.30;;;10.20;;
19089;SDS011;9677;50.656;13.064;2023-04-25T14:43:54;10.40;;;9.40;;
19089;SDS011;9677;50.656;13.064;2023-04-25T14:46:23;11.30;;;9.97;;
19089;SDS011;9677;50.656;13.064;2023-04-25T14:48:52;10.80;;;9.80;;
19089;SDS011;9677;50.656;13.064;2023-04-25T14:51:22;10.50;;;9.50;;
19089;SDS011;9677;50.656;13.064;2023-04-25T14:53:52;11.03;;;9.93;;
19089;SDS011;9677;50.656;13.064;2023-04-25T14:56:20;11.23;;;10.00;;
19089;SDS011;9677;50.656;13.064;2023-04-25T14:58:49;10.63;;;9.63;;
19089;SDS011;9677;50.656;13.064;2023-04-25T15:01:17;11.13;;;10.13;;
19089;SDS011;9677;50.656;13.064;2023-04-25T15:03:47;10.33;;;9.43;;
19089;SDS011;9677;50.656;13.064;2023-04-25T15:06:16;10.60;;;9.60;;
19089;SDS011;9677;50.656;13.064;2023-04-25T15:08:45;10.17;;;9.27;;
19089;SDS011;9677;50.656;13.064;2023-04-25T15:11:14;11.13;;;9.83;;
19089;SDS011;9677;50.656;13.064;2023-04-25T15:13:43;11.00;;;10.00;;
19089;SDS011;9677;50.656;13.064;2023-04-25T15:16:11;11.23;;;10.10;;
19089;SDS011;9677;50.656;13.064;2023-04-25T15:18:40;10.90;;;9.90;;
19089;SDS011;9677;50.656;13.064;2023-04-25T15:21:08;11.77;;;10.57;;
19089;SDS011;9677;50.656;13.064;2023-04-25T15:23:37;11.53;;;10.43;;
19089;SDS011;9677;50.656;13.064;2023-04-25T15:26:05;10.87;;;9.87;;
19089;SDS011;9677;50.656;13.064;2023-04-25T15:28:35;11.37;;;10.37;;
19089;SDS011;9677;50.656;13.064;2023-04-25T15:31:03;11.10;;;9.90;;
19089;SDS011;9677;50.656;13.064;2023-04-25T15:33:32;11.10;;;10.00;;
19089;SDS011;9677;50.656;13.064;2023-04-25T15:36:00;12.13;;;10.13;;
19089;SDS011;9677;50.656;13.064;2023-04-25T15:38:29;11.20;;;10.10;;
19089;SDS011;9677;50.656;13.064;2023-04-25T15:40:58;11.03;;;10.03;;
19089;SDS011;9677;50.656;13.064;2023-04-25T15:43:26;11.30;;;10.20;;
19089;SDS011;9677;50.656;13.064;2023-04-25T15:45:56;11.13;;;10.03;;
19089;SDS011;9677;50.656;13.064;2023-04-25T15:48:24;10.70;;;9.70;;
19089;SDS011;9677;50.656;13.064;2023-04-25T15:50:53;13.57;;;11.00;;
19089;SDS011;9677;50.656;13.064;2023-04-25T15:53:21;10.97;;;9.87;;
19089;SDS011;9677;50.656;13.064;2023-04-25T15:55:50;11.50;;;10.37;;
19089;SDS011;9677;50.656;13.064;2023-04-25T15:58:18;11.67;;;10.57;;
19089;SDS011;9677;50.656;13.064;2023-04-25T16:00:46;11.40;;;10.33;;
19089;SDS011;9677;50.656;13.064;2023-04-25T16:03:18;11.03;;;9.90;;
19089;SDS011;9677;50.656;13.064;2023-04-25T16:05:47;11.17;;;10.07;;
19089;SDS011;9677;50.656;13.064;2023-04-25T16:08:16;11.83;;;10.63;;
19089;SDS011;9677;50.656;13.064;2023-04-25T16:10:44;11.70;;;9.93;;
19089;SDS011;9677;50.656;13.064;2023-04-25T16:13:13;10.83;;;9.93;;
19089;SDS011;9677;50.656;13.064;2023-04-25T16:15:41;11.07;;;10.00;;
19089;SDS011;9677;50.656;13.064;2023-04-25T16:18:09;11.30;;;10.30;;
19089;SDS011;9677;50.656;13.064;2023-04-25T16:20:39;10.90;;;9.90;;
19089;SDS011;9677;50.656;13.064;2023-04-25T16:23:07;10.73;;;9.83;;
19089;SDS011;9677;50.656;13.064;2023-04-25T16:25:36;14.80;;;9.80;;
19089;SDS011;9677;50.656;13.064;2023-04-25T16:28:04;10.40;;;9.30;;
19089;SDS011;9677;50.656;13.064;2023-04-25T16:30:33;13.10;;;9.70;;
19089;SDS011;9677;50.656;13.064;2023-04-25T16:33:01;10.60;;;9.60;;
19089;SDS011;9677;50.656;13.064;2023-04-25T16:35:30;10.70;;;9.60;;
19089;SDS011;9677;50.656;13.064;2023-04-25T16:37:59;10.70;;;9.70;;
19089;SDS011;9677;50.656;13.064;2023-04-25T16:40:28;10.77;;;9.77;;
19089;SDS011;9677;50.656;13.064;2023-04-25T16:42:56;11.03;;;9.93;;
19089;SDS011;9677;50.656;13.064;2023-04-25T16:45:25;10.80;;;9.80;;
19089;SDS011;9677;50.656;13.064;2023-04-25T16:47:53;10.30;;;9.40;;
19089;SDS011;9677;50.656;13.064;2023-04-25T16:50:22;10.83;;;9.80;;
19089;SDS011;9677;50.656;13.064;2023-04-25T16:52:50;11.27;;;10.27;;
19089;SDS011;9677;50.656;13.064;2023-04-25T16:55:21;10.87;;;9.87;;
19089;SDS011;9677;50.656;13.064;2023-04-25T16:57:49;10.37;;;9.37;;
19089;SDS011;9677;50.656;13.064;2023-04-25T17:00:18;11.30;;;10.30;;
19089;SDS011;9677;50.656;13.064;2023-04-25T17:02:46;10.63;;;9.73;;
19089;SDS011;9677;50.656;13.064;2023-04-25T17:05:15;11.03;;;10.03;;
19089;SDS011;9677;50.656;13.064;2023-04-25T17:07:44;11.03;;;9.97;;
19089;SDS011;9677;50.656;13.064;2023-04-25T17:10:12;10.83;;;9.73;;
19089;SDS011;9677;50.656;13.064;2023-04-25T17:12:42;10.93;;;9.80;;
19089;SDS011;9677;50.656;13.064;2023-04-25T17:15:12;10.40;;;9.50;;
19089;SDS011;9677;50.656;13.064;2023-04-25T17:17:40;11.00;;;9.90;;
19089;SDS011;9677;50.656;13.064;2023-04-25T17:20:09;11.33;;;9.70;;
19089;SDS011;9677;50.656;13.064;2023-04-25T17:22:39;10.30;;;9.40;;
19089;SDS011;9677;50.656;13.064;2023-04-25T17:25:07;10.07;;;9.17;;
19089;SDS011;9677;50.656;13.064;2023-04-25T17:27:37;12.13;;;9.47;;
19089;SDS011;9677;50.656;13.064;2023-04-25T17:30:07;11.23;;;10.13;;
19089;SDS011;9677;50.656;13.064;2023-04-25T17:32:36;10.90;;;9.90;;
19089;SDS011;9677;50.656;13.064;2023-04-25T17:35:05;10.73;;;9.73;;
19089;SDS011;9677;50.656;13.064;2023-04-25T17:37:34;10.50;;;9.50;;
19089;SDS011;9677;50.656;13.064;2023-04-25T17:40:02;11.53;;;9.77;;
19089;SDS011;9677;50.656;13.064;2023-04-25T17:42:36;10.90;;;9.90;;
19089;SDS011;9677;50.656;13.064;2023-04-25T17:45:07;10.50;;;9.50;;
19089;SDS011;9677;50.656;13.064;2023-04-25T17:47:38;10.60;;;9.67;;
19089;SDS011;9677;50.656;13.064;2023-04-25T17:50:07;10.30;;;9.23;;
19089;SDS011;9677;50.656;13.064;2023-04-25T17:52:38;10.70;;;9.70;;
19089;SDS011;9677;50.656;13.064;2023-04-25T17:55:06;10.97;;;10.07;;
19089;SDS011;9677;50.656;13.064;2023-04-25T17:57:35;10.33;;;9.33;;
19089;SDS011;9677;50.656;13.064;2023-04-25T18:00:04;10.93;;;9.93;;
19089;SDS011;9677;50.656;13.064;2023-04-25T18:02:41;10.67;;;9.67;;
19089;SDS011;9677;50.656;13.064;2023-04-25T18:05:10;11.70;;;9.63;;
19089;SDS011;9677;50.656;13.064;2023-04-25T18:07:39;10.40;;;9.43;;
19089;SDS011;9677;50.656;13.064;2023-04-25T18:10:08;11.27;;;9.70;;
19089;SDS011;9677;50.656;13.064;2023-04-25T18:12:38;10.27;;;9.27;;
19089;SDS011;9677;50.656;13.064;2023-04-25T18:15:08;11.07;;;10.07;;
19089;SDS011;9677;50.656;13.064;2023-04-25T18:17:38;11.00;;;10.00;;
19089;SDS011;9677;50.656;13.064;2023-04-25T18:20:08;10.93;;;9.93;;
19089;SDS011;9677;50.656;13.064;2023-04-25T18:22:40;10.63;;;9.60;;
19089;SDS011;9677;50.656;13.064;2023-04-25T18:25:09;10.20;;;9.30;;
19089;SDS011;9677;50.656;13.064;2023-04-25T18:27:39;11.10;;;10.10;;
19089;SDS011;9677;50.656;13.064;2023-04-25T18:30:09;11.07;;;9.97;;
19089;SDS011;9677;50.656;13.064;2023-04-25T18:32:39;10.47;;;9.50;;
19089;SDS011;9677;50.656;13.064;2023-04-25T18:35:08;10.27;;;9.37;;
19089;SDS011;9677;50.656;13.064;2023-04-25T18:37:37;10.63;;;9.50;;
19089;SDS011;9677;50.656;13.064;2023-04-25T18:40:08;10.73;;;9.83;;
19089;SDS011;9677;50.656;13.064;2023-04-25T18:42:39;10.17;;;9.17;;
19089;SDS011;9677;50.656;13.064;2023-04-25T18:45:10;10.67;;;9.70;;
19089;SDS011;9677;50.656;13.064;2023-04-25T18:47:39;10.97;;;9.97;;
19089;SDS011;9677;50.656;13.064;2023-04-25T18:50:08;10.47;;;9.57;;
19089;SDS011;9677;50.656;13.064;2023-04-25T18:52:38;10.47;;;9.57;;
19089;SDS011;9677;50.656;13.064;2023-04-25T18:55:07;15.90;;;13.30;;
19089;SDS011;9677;50.656;13.064;2023-04-25T18:57:36;18.70;;;14.33;;
19089;SDS011;9677;50.656;13.064;2023-04-25T19:00:05;13.93;;;12.50;;
19089;SDS011;9677;50.656;13.064;2023-04-25T19:02:38;22.93;;;14.50;;
19089;SDS011;9677;50.656;13.064;2023-04-25T19:05:07;19.23;;;14.10;;
19089;SDS011;9677;50.656;13.064;2023-04-25T19:07:36;15.13;;;12.90;;
19089;SDS011;9677;50.656;13.064;2023-04-25T19:10:06;13.13;;;11.70;;
19089;SDS011;9677;50.656;13.064;2023-04-25T19:12:35;12.90;;;11.53;;
19089;SDS011;9677;50.656;13.064;2023-04-25T19:15:04;26.07;;;13.80;;
19089;SDS011;9677;50.656;13.064;2023-04-25T19:17:35;13.23;;;11.83;;
19089;SDS011;9677;50.656;13.064;2023-04-25T19:20:05;13.67;;;11.87;;
19089;SDS011;9677;50.656;13.064;2023-04-25T19:22:35;11.80;;;10.60;;
19089;SDS011;9677;50.656;13.064;2023-04-25T19:25:03;12.57;;;10.60;;
19089;SDS011;9677;50.656;13.064;2023-04-25T19:27:36;11.27;;;10.27;;
19089;SDS011;9677;50.656;13.064;2023-04-25T19:30:05;10.80;;;9.70;;
19089;SDS011;9677;50.656;13.064;2023-04-25T19:32:36;11.40;;;10.37;;
19089;SDS011;9677;50.656;13.064;2023-04-25T19:35:08;11.30;;;10.20;;
19089;SDS011;9677;50.656;13.064;2023-04-25T19:37:37;10.97;;;9.97;;
19089;SDS011;9677;50.656;13.064;2023-04-25T19:40:12;10.97;;;9.93;;
19089;SDS011;9677;50.656;13.064;2023-04-25T19:42:42;10.90;;;9.90;;